sensor_id;sensor_type;location;lat;lon;timestamp;pressure;altitude;pressure_sealevel;temperature;humidity
64211;BME280;50528;48.514;14.394;2023-05-10T00:00:07;93306.91;;;9.18;62.97
64211;BME280;50528;48.514;14.394;2023-05-10T00:01:08;93306.90;;;9.11;62.75
64211;BME280;50528;48.514;14.394;2023-05-10T00:01:41;93304.41;;;9.06;62.80
64211;BME280;50528;48.514;14.394;2023-05-10T00:02:14;93305.85;;;9.04;62.95
64211;BME280;50528;48.514;14.394;2023-05-10T00:02:48;93306.48;;;9.03;62.95
64211;BME280;50528;48.514;14.394;2023-05-10T00:03:21;93307.61;;;9.03;63.05
64211;BME280;50528;48.514;14.394;2023-05-10T00:03:55;93302.74;;;9.01;62.97
64211;BME280;50528;48.514;14.394;2023-05-10T00:04:28;93301.99;;;9.00;62.96
64211;BME280;50528;48.514;14.394;2023-05-10T00:05:02;93300.10;;;8.99;62.98
64211;BME280;50528;48.514;14.394;2023-05-10T00:05:35;93299.77;;;8.98;62.97
64211;BME280;50528;48.514;14.394;2023-05-10T00:06:08;93301.33;;;8.97;62.92
64211;BME280;50528;48.514;14.394;2023-05-10T00:06:42;93300.91;;;8.95;62.79
64211;BME280;50528;48.514;14.394;2023-05-10T00:07:15;93297.58;;;8.93;62.88
64211;BME280;50528;48.514;14.394;2023-05-10T00:07:50;93299.20;;;8.92;62.89
64211;BME280;50528;48.514;14.394;2023-05-10T00:08:23;93298.35;;;8.91;62.95
64211;BME280;50528;48.514;14.394;2023-05-10T00:08:57;93296.92;;;8.91;62.92
64211;BME280;50528;48.514;14.394;2023-05-10T00:09:30;93298.39;;;8.90;63.01
64211;BME280;50528;48.514;14.394;2023-05-10T00:10:04;93296.51;;;8.91;63.11
64211;BME280;50528;48.514;14.394;2023-05-10T00:10:41;93294.24;;;8.90;63.08
64211;BME280;50528;48.514;14.394;2023-05-10T00:11:17;93297.75;;;8.90;63.13
64211;BME280;50528;48.514;14.394;2023-05-10T00:11:54;93293.77;;;8.88;63.29
64211;BME280;50528;48.514;14.394;2023-05-10T00:12:28;93291.24;;;8.87;63.28
64211;BME280;50528;48.514;14.394;2023-05-10T00:13:01;93289.79;;;8.89;63.39
64211;BME280;50528;48.514;14.394;2023-05-10T00:13:34;93292.05;;;8.90;63.40
64211;BME280;50528;48.514;14.394;2023-05-10T00:14:08;93294.77;;;8.91;63.50
64211;BME280;50528;48.514;14.394;2023-05-10T00:14:41;93292.84;;;8.91;63.55
64211;BME280;50528;48.514;14.394;2023-05-10T00:15:14;93292.90;;;8.92;63.55
64211;BME280;50528;48.514;14.394;2023-05-10T00:15:47;93289.64;;;8.91;63.60
64211;BME280;50528;48.514;14.394;2023-05-10T00:16:21;93291.17;;;8.91;63.61
64211;BME280;50528;48.514;14.394;2023-05-10T00:16:54;93289.34;;;8.92;63.64
64211;BME280;50528;48.514;14.394;2023-05-10T00:17:28;93287.61;;;8.92;63.73
64211;BME280;50528;48.514;14.394;2023-05-10T00:18:01;93288.98;;;8.93;63.65
64211;BME280;50528;48.514;14.394;2023-05-10T00:18:34;93282.59;;;8.93;63.71
64211;BME280;50528;48.514;14.394;2023-05-10T00:19:08;93280.65;;;8.93;63.76
64211;BME280;50528;48.514;14.394;2023-05-10T00:19:41;93280.77;;;8.93;63.69
64211;BME280;50528;48.514;14.394;2023-05-10T00:20:15;93282.64;;;8.92;63.74
64211;BME280;50528;48.514;14.394;2023-05-10T00:20:49;93280.07;;;8.92;63.79
64211;BME280;50528;48.514;14.394;2023-05-10T00:21:22;93280.26;;;8.91;63.89
64211;BME280;50528;48.514;14.394;2023-05-10T00:21:55;93275.80;;;8.89;63.72
64211;BME280;50528;48.514;14.394;2023-05-10T00:22:29;93275.89;;;8.88;63.83
64211;BME280;50528;48.514;14.394;2023-05-10T00:23:02;93277.81;;;8.86;63.73
64211;BME280;50528;48.514;14.394;2023-05-10T00:23:36;93280.31;;;8.84;63.80
64211;BME280;50528;48.514;14.394;2023-05-10T00:24:09;93278.56;;;8.83;63.83
64211;BME280;50528;48.514;14.394;2023-05-10T00:24:42;93275.59;;;8.82;63.73
64211;BME280;50528;48.514;14.394;2023-05-10T00:25:15;93274.89;;;8.81;63.77
64211;BME280;50528;48.514;14.394;2023-05-10T00:25:49;93277.48;;;8.82;63.79
64211;BME280;50528;48.514;14.394;2023-05-10T00:26:22;93272.10;;;8.79;63.74
64211;BME280;50528;48.514;14.394;2023-05-10T00:26:56;93278.24;;;8.81;63.75
64211;BME280;50528;48.514;14.394;2023-05-10T00:27:30;93279.18;;;8.80;63.69
64211;BME280;50528;48.514;14.394;2023-05-10T00:28:04;93276.02;;;8.80;63.65
64211;BME280;50528;48.514;14.394;2023-05-10T00:28:37;93277.38;;;8.79;63.67
64211;BME280;50528;48.514;14.394;2023-05-10T00:29:10;93278.05;;;8.79;63.72
64211;BME280;50528;48.514;14.394;2023-05-10T00:29:43;93277.16;;;8.78;63.69
64211;BME280;50528;48.514;14.394;2023-05-10T00:30:17;93277.00;;;8.78;63.77
64211;BME280;50528;48.514;14.394;2023-05-10T00:30:51;93276.41;;;8.75;63.77
64211;BME280;50528;48.514;14.394;2023-05-10T00:31:24;93278.27;;;8.77;63.84
64211;BME280;50528;48.514;14.394;2023-05-10T00:31:57;93277.90;;;8.77;63.92
64211;BME280;50528;48.514;14.394;2023-05-10T00:32:31;93276.74;;;8.76;64.02
64211;BME280;50528;48.514;14.394;2023-05-10T00:33:04;93271.27;;;8.75;64.02
64211;BME280;50528;48.514;14.394;2023-05-10T00:33:38;93271.71;;;8.76;64.09
64211;BME280;50528;48.514;14.394;2023-05-10T00:34:11;93273.44;;;8.77;64.15
64211;BME280;50528;48.514;14.394;2023-05-10T00:34:44;93270.46;;;8.77;64.25
64211;BME280;50528;48.514;14.394;2023-05-10T00:35:18;93271.08;;;8.78;64.12
64211;BME280;50528;48.514;14.394;2023-05-10T00:35:51;93268.41;;;8.77;64.06
64211;BME280;50528;48.514;14.394;2023-05-10T00:36:25;93265.22;;;8.77;63.99
64211;BME280;50528;48.514;14.394;2023-05-10T00:36:59;93269.55;;;8.76;64.03
64211;BME280;50528;48.514;14.394;2023-05-10T00:37:32;93271.84;;;8.74;63.84
64211;BME280;50528;48.514;14.394;2023-05-10T00:38:06;93265.13;;;8.74;63.76
64211;BME280;50528;48.514;14.394;2023-05-10T00:38:39;93270.26;;;8.72;63.77
64211;BME280;50528;48.514;14.394;2023-05-10T00:39:13;93264.58;;;8.70;63.64
64211;BME280;50528;48.514;14.394;2023-05-10T00:39:47;93265.09;;;8.68;63.59
64211;BME280;50528;48.514;14.394;2023-05-10T00:40:21;93267.55;;;8.69;63.59
64211;BME280;50528;48.514;14.394;2023-05-10T00:40:57;93267.07;;;8.68;63.59
64211;BME280;50528;48.514;14.394;2023-05-10T00:41:34;93265.75;;;8.68;63.61
64211;BME280;50528;48.514;14.394;2023-05-10T00:42:07;93267.36;;;8.67;63.60
64211;BME280;50528;48.514;14.394;2023-05-10T00:42:40;93264.74;;;8.66;63.68
64211;BME280;50528;48.514;14.394;2023-05-10T00:43:14;93263.66;;;8.66;63.62
64211;BME280;50528;48.514;14.394;2023-05-10T00:43:47;93265.85;;;8.65;63.59
64211;BME280;50528;48.514;14.394;2023-05-10T00:44:21;93263.74;;;8.64;63.46
64211;BME280;50528;48.514;14.394;2023-05-10T00:44:55;93261.93;;;8.61;63.28
64211;BME280;50528;48.514;14.394;2023-05-10T00:45:31;93262.48;;;8.61;63.08
64211;BME280;50528;48.514;14.394;2023-05-10T00:46:06;93264.75;;;8.59;63.07
64211;BME280;50528;48.514;14.394;2023-05-10T00:46:39;93264.93;;;8.57;63.31
64211;BME280;50528;48.514;14.394;2023-05-10T00:47:13;93268.73;;;8.54;63.13
64211;BME280;50528;48.514;14.394;2023-05-10T00:47:47;93266.15;;;8.53;63.13
64211;BME280;50528;48.514;14.394;2023-05-10T00:48:21;93266.70;;;8.51;63.12
64211;BME280;50528;48.514;14.394;2023-05-10T00:48:55;93266.13;;;8.50;63.17
64211;BME280;50528;48.514;14.394;2023-05-10T00:49:28;93269.24;;;8.49;63.21
64211;BME280;50528;48.514;14.394;2023-05-10T00:50:03;93268.66;;;8.48;63.19
64211;BME280;50528;48.514;14.394;2023-05-10T00:50:38;93267.73;;;8.47;63.31
64211;BME280;50528;48.514;14.394;2023-05-10T00:51:13;93268.03;;;8.46;63.37
64211;BME280;50528;48.514;14.394;2023-05-10T00:51:46;93269.08;;;8.46;63.35
64211;BME280;50528;48.514;14.394;2023-05-10T00:52:20;93267.19;;;8.46;63.34
64211;BME280;50528;48.514;14.394;2023-05-10T00:52:53;93270.00;;;8.45;63.40
64211;BME280;50528;48.514;14.394;2023-05-10T00:53:26;93269.20;;;8.44;63.53
64211;BME280;50528;48.514;14.394;2023-05-10T00:54:00;93273.08;;;8.44;63.53
64211;BME280;50528;48.514;14.394;2023-05-10T00:54:34;93274.43;;;8.43;63.61
64211;BME280;50528;48.514;14.394;2023-05-10T00:55:08;93268.48;;;8.40;63.78
64211;BME280;50528;48.514;14.394;2023-05-10T00:55:42;93270.59;;;8.43;63.89
64211;BME280;50528;48.514;14.394;2023-05-10T00:56:16;93272.48;;;8.42;63.98
64211;BME280;50528;48.514;14.394;2023-05-10T00:56:49;93272.13;;;8.41;63.96
64211;BME280;50528;48.514;14.394;2023-05-10T00:57:23;93272.11;;;8.40;63.95
64211;BME280;50528;48.514;14.394;2023-05-10T00:57:57;93273.92;;;8.39;63.89
64211;BME280;50528;48.514;14.394;2023-05-10T00:58:30;93270.86;;;8.37;63.78
64211;BME280;50528;48.514;14.394;2023-05-10T00:59:04;93270.95;;;8.35;63.62
64211;BME280;50528;48.514;14.394;2023-05-10T00:59:37;93272.69;;;8.35;63.58
64211;BME280;50528;48.514;14.394;2023-05-10T01:00:14;93272.70;;;8.33;63.57
64211;BME280;50528;48.514;14.394;2023-05-10T01:00:51;93271.92;;;8.30;63.50
64211;BME280;50528;48.514;14.394;2023-05-10T01:01:31;93275.70;;;8.27;63.53
64211;BME280;50528;48.514;14.394;2023-05-10T01:02:05;93272.44;;;8.24;63.60
64211;BME280;50528;48.514;14.394;2023-05-10T01:02:40;93273.64;;;8.23;63.57
64211;BME280;50528;48.514;14.394;2023-05-10T01:03:14;93273.92;;;8.22;63.65
64211;BME280;50528;48.514;14.394;2023-05-10T01:03:48;93275.16;;;8.21;63.75
64211;BME280;50528;48.514;14.394;2023-05-10T01:04:21;93273.33;;;8.20;63.83
64211;BME280;50528;48.514;14.394;2023-05-10T01:04:58;93273.58;;;8.19;63.87
64211;BME280;50528;48.514;14.394;2023-05-10T01:05:33;93274.31;;;8.18;63.87
64211;BME280;50528;48.514;14.394;2023-05-10T01:06:07;93276.45;;;8.18;63.99
64211;BME280;50528;48.514;14.394;2023-05-10T01:06:43;93275.64;;;8.16;64.12
64211;BME280;50528;48.514;14.394;2023-05-10T01:07:16;93273.28;;;8.16;64.09
64211;BME280;50528;48.514;14.394;2023-05-10T01:07:50;93272.80;;;8.15;64.26
64211;BME280;50528;48.514;14.394;2023-05-10T01:08:24;93274.98;;;8.15;64.21
64211;BME280;50528;48.514;14.394;2023-05-10T01:08:58;93278.13;;;8.15;64.33
64211;BME280;50528;48.514;14.394;2023-05-10T01:09:33;93279.54;;;8.14;64.26
64211;BME280;50528;48.514;14.394;2023-05-10T01:10:07;93280.57;;;8.13;64.29
64211;BME280;50528;48.514;14.394;2023-05-10T01:10:42;93276.86;;;8.13;64.26
64211;BME280;50528;48.514;14.394;2023-05-10T01:11:16;93275.92;;;8.12;64.20
64211;BME280;50528;48.514;14.394;2023-05-10T01:11:49;93279.05;;;8.12;64.17
64211;BME280;50528;48.514;14.394;2023-05-10T01:12:23;93277.64;;;8.11;64.19
64211;BME280;50528;48.514;14.394;2023-05-10T01:12:58;93279.35;;;8.11;64.17
64211;BME280;50528;48.514;14.394;2023-05-10T01:13:41;93277.84;;;8.08;64.17
64211;BME280;50528;48.514;14.394;2023-05-10T01:14:18;93280.30;;;8.08;64.11
64211;BME280;50528;48.514;14.394;2023-05-10T01:14:52;93278.52;;;8.06;64.13
64211;BME280;50528;48.514;14.394;2023-05-10T01:15:26;93279.23;;;8.05;64.16
64211;BME280;50528;48.514;14.394;2023-05-10T01:16:00;93279.59;;;8.05;64.22
64211;BME280;50528;48.514;14.394;2023-05-10T01:16:38;93280.73;;;8.04;64.24
64211;BME280;50528;48.514;14.394;2023-05-10T01:17:12;93278.11;;;8.03;64.18
64211;BME280;50528;48.514;14.394;2023-05-10T01:17:47;93284.52;;;8.02;64.32
64211;BME280;50528;48.514;14.394;2023-05-10T01:18:21;93282.13;;;8.02;64.32
64211;BME280;50528;48.514;14.394;2023-05-10T01:18:55;93283.31;;;8.01;64.32
64211;BME280;50528;48.514;14.394;2023-05-10T01:19:29;93284.63;;;8.01;64.42
64211;BME280;50528;48.514;14.394;2023-05-10T01:20:04;93286.81;;;8.00;64.38
64211;BME280;50528;48.514;14.394;2023-05-10T01:20:44;93285.48;;;7.98;64.36
64211;BME280;50528;48.514;14.394;2023-05-10T01:21:43;93285.54;;;7.98;64.41
64211;BME280;50528;48.514;14.394;2023-05-10T01:26:52;93301.56;;;7.82;64.49
64211;BME280;50528;48.514;14.394;2023-05-10T01:29:11;93300.34;;;7.80;64.97
64211;BME280;50528;48.514;14.394;2023-05-10T01:30:50;93298.45;;;7.80;65.01
64211;BME280;50528;48.514;14.394;2023-05-10T01:33:58;93299.09;;;7.86;64.92
64211;BME280;50528;48.514;14.394;2023-05-10T01:34:42;93299.84;;;7.87;64.99
64211;BME280;50528;48.514;14.394;2023-05-10T01:36:02;93301.59;;;7.85;64.93
64211;BME280;50528;48.514;14.394;2023-05-10T01:36:38;93302.99;;;7.83;64.92
64211;BME280;50528;48.514;14.394;2023-05-10T01:37:16;93304.20;;;7.83;64.97
64211;BME280;50528;48.514;14.394;2023-05-10T01:38:07;93304.29;;;7.83;64.86
64211;BME280;50528;48.514;14.394;2023-05-10T01:38:50;93304.77;;;7.83;64.87
64211;BME280;50528;48.514;14.394;2023-05-10T01:39:32;93303.61;;;7.82;64.98
64211;BME280;50528;48.514;14.394;2023-05-10T01:40:37;93305.98;;;7.83;64.99
64211;BME280;50528;48.514;14.394;2023-05-10T01:41:18;93301.38;;;7.80;65.09
64211;BME280;50528;48.514;14.394;2023-05-10T01:42:06;93300.93;;;7.81;65.10
64211;BME280;50528;48.514;14.394;2023-05-10T01:42:48;93301.61;;;7.81;65.13
64211;BME280;50528;48.514;14.394;2023-05-10T01:43:28;93301.19;;;7.81;65.23
64211;BME280;50528;48.514;14.394;2023-05-10T01:46:05;93295.66;;;7.79;65.19
64211;BME280;50528;48.514;14.394;2023-05-10T01:46:46;93294.69;;;7.75;65.11
64211;BME280;50528;48.514;14.394;2023-05-10T01:47:33;93293.67;;;7.74;65.12
64211;BME280;50528;48.514;14.394;2023-05-10T01:48:10;93292.02;;;7.73;65.07
64211;BME280;50528;48.514;14.394;2023-05-10T01:48:47;93288.73;;;7.73;65.04
64211;BME280;50528;48.514;14.394;2023-05-10T01:50:43;93294.34;;;7.62;64.76
64211;BME280;50528;48.514;14.394;2023-05-10T01:51:21;93296.87;;;7.56;64.58
64211;BME280;50528;48.514;14.394;2023-05-10T01:52:00;93298.42;;;7.54;64.53
64211;BME280;50528;48.514;14.394;2023-05-10T01:52:41;93300.10;;;7.51;64.44
64211;BME280;50528;48.514;14.394;2023-05-10T01:53:18;93298.34;;;7.49;64.57
64211;BME280;50528;48.514;14.394;2023-05-10T01:53:58;93294.14;;;7.47;64.60
64211;BME280;50528;48.514;14.394;2023-05-10T01:54:33;93295.66;;;7.47;64.58
64211;BME280;50528;48.514;14.394;2023-05-10T01:55:14;93297.07;;;7.47;64.80
64211;BME280;50528;48.514;14.394;2023-05-10T01:55:51;93295.94;;;7.45;64.84
64211;BME280;50528;48.514;14.394;2023-05-10T01:56:29;93294.88;;;7.44;64.92
64211;BME280;50528;48.514;14.394;2023-05-10T01:57:05;93297.44;;;7.44;65.08
64211;BME280;50528;48.514;14.394;2023-05-10T01:57:40;93295.28;;;7.44;65.10
64211;BME280;50528;48.514;14.394;2023-05-10T01:58:22;93297.17;;;7.44;65.35
64211;BME280;50528;48.514;14.394;2023-05-10T01:58:57;93294.65;;;7.43;65.37
64211;BME280;50528;48.514;14.394;2023-05-10T01:59:34;93293.27;;;7.44;65.43
64211;BME280;50528;48.514;14.394;2023-05-10T02:00:10;93293.13;;;7.45;65.46
64211;BME280;50528;48.514;14.394;2023-05-10T02:00:47;93290.77;;;7.46;65.52
64211;BME280;50528;48.514;14.394;2023-05-10T02:01:25;93291.25;;;7.46;65.59
64211;BME280;50528;48.514;14.394;2023-05-10T02:02:01;93290.02;;;7.47;65.67
64211;BME280;50528;48.514;14.394;2023-05-10T02:02:39;93291.60;;;7.48;65.73
64211;BME280;50528;48.514;14.394;2023-05-10T02:03:16;93290.91;;;7.48;65.65
64211;BME280;50528;48.514;14.394;2023-05-10T02:03:51;93291.42;;;7.48;65.79
64211;BME280;50528;48.514;14.394;2023-05-10T02:04:26;93290.23;;;7.49;65.78
64211;BME280;50528;48.514;14.394;2023-05-10T02:05:03;93290.41;;;7.50;65.92
64211;BME280;50528;48.514;14.394;2023-05-10T02:05:38;93289.52;;;7.50;66.06
64211;BME280;50528;48.514;14.394;2023-05-10T02:06:14;93290.52;;;7.50;66.10
64211;BME280;50528;48.514;14.394;2023-05-10T02:06:50;93289.91;;;7.51;66.21
64211;BME280;50528;48.514;14.394;2023-05-10T02:07:27;93289.86;;;7.51;66.20
64211;BME280;50528;48.514;14.394;2023-05-10T02:08:03;93285.17;;;7.52;66.31
64211;BME280;50528;48.514;14.394;2023-05-10T02:08:40;93287.65;;;7.53;66.37
64211;BME280;50528;48.514;14.394;2023-05-10T02:09:14;93288.64;;;7.55;66.36
64211;BME280;50528;48.514;14.394;2023-05-10T02:09:49;93292.84;;;7.56;66.38
64211;BME280;50528;48.514;14.394;2023-05-10T02:10:23;93290.07;;;7.56;66.52
64211;BME280;50528;48.514;14.394;2023-05-10T02:10:58;93291.28;;;7.59;66.54
64211;BME280;50528;48.514;14.394;2023-05-10T02:11:33;93292.22;;;7.59;66.61
64211;BME280;50528;48.514;14.394;2023-05-10T02:12:07;93291.13;;;7.60;66.57
64211;BME280;50528;48.514;14.394;2023-05-10T02:12:43;93293.60;;;7.62;66.56
64211;BME280;50528;48.514;14.394;2023-05-10T02:13:18;93293.89;;;7.61;66.61
64211;BME280;50528;48.514;14.394;2023-05-10T02:13:53;93295.67;;;7.61;66.63
64211;BME280;50528;48.514;14.394;2023-05-10T02:14:33;93291.87;;;7.62;66.55
64211;BME280;50528;48.514;14.394;2023-05-10T02:15:08;93291.71;;;7.61;66.56
64211;BME280;50528;48.514;14.394;2023-05-10T02:15:44;93293.25;;;7.63;66.59
64211;BME280;50528;48.514;14.394;2023-05-10T02:16:23;93291.90;;;7.63;66.64
64211;BME280;50528;48.514;14.394;2023-05-10T02:16:59;93285.70;;;7.62;66.66
64211;BME280;50528;48.514;14.394;2023-05-10T02:17:35;93289.27;;;7.62;66.74
64211;BME280;50528;48.514;14.394;2023-05-10T02:18:11;93286.02;;;7.62;66.64
64211;BME280;50528;48.514;14.394;2023-05-10T02:18:46;93283.25;;;7.62;66.68
64211;BME280;50528;48.514;14.394;2023-05-10T02:19:21;93287.73;;;7.64;66.67
64211;BME280;50528;48.514;14.394;2023-05-10T02:19:56;93287.00;;;7.64;66.69
64211;BME280;50528;48.514;14.394;2023-05-10T02:20:31;93284.61;;;7.65;66.62
64211;BME280;50528;48.514;14.394;2023-05-10T02:21:05;93290.40;;;7.64;66.73
64211;BME280;50528;48.514;14.394;2023-05-10T02:21:39;93289.08;;;7.63;66.63
64211;BME280;50528;48.514;14.394;2023-05-10T02:22:15;93287.75;;;7.62;66.67
64211;BME280;50528;48.514;14.394;2023-05-10T02:22:50;93288.80;;;7.62;66.70
64211;BME280;50528;48.514;14.394;2023-05-10T02:23:25;93288.73;;;7.62;66.64
64211;BME280;50528;48.514;14.394;2023-05-10T02:24:01;93287.79;;;7.60;66.55
64211;BME280;50528;48.514;14.394;2023-05-10T02:24:37;93286.45;;;7.58;66.38
64211;BME280;50528;48.514;14.394;2023-05-10T02:25:13;93285.55;;;7.54;66.24
64211;BME280;50528;48.514;14.394;2023-05-10T02:25:47;93285.59;;;7.52;66.09
64211;BME280;50528;48.514;14.394;2023-05-10T02:26:22;93288.31;;;7.50;66.11
64211;BME280;50528;48.514;14.394;2023-05-10T02:26:59;93285.83;;;7.48;66.06
64211;BME280;50528;48.514;14.394;2023-05-10T02:27:33;93281.19;;;7.45;65.98
64211;BME280;50528;48.514;14.394;2023-05-10T02:28:10;93282.85;;;7.44;65.94
64211;BME280;50528;48.514;14.394;2023-05-10T02:28:45;93281.27;;;7.42;65.95
64211;BME280;50528;48.514;14.394;2023-05-10T02:29:19;93283.48;;;7.40;65.94
64211;BME280;50528;48.514;14.394;2023-05-10T02:29:54;93281.30;;;7.38;65.90
64211;BME280;50528;48.514;14.394;2023-05-10T02:30:28;93283.48;;;7.36;65.76
64211;BME280;50528;48.514;14.394;2023-05-10T02:31:03;93282.90;;;7.35;65.59
64211;BME280;50528;48.514;14.394;2023-05-10T02:31:38;93282.45;;;7.33;65.43
64211;BME280;50528;48.514;14.394;2023-05-10T02:32:12;93283.34;;;7.31;65.34
64211;BME280;50528;48.514;14.394;2023-05-10T02:32:47;93283.39;;;7.29;65.27
64211;BME280;50528;48.514;14.394;2023-05-10T02:33:22;93281.46;;;7.27;65.25
64211;BME280;50528;48.514;14.394;2023-05-10T02:33:58;93279.13;;;7.25;65.16
64211;BME280;50528;48.514;14.394;2023-05-10T02:34:33;93275.42;;;7.21;65.05
64211;BME280;50528;48.514;14.394;2023-05-10T02:35:08;93275.81;;;7.19;65.08
64211;BME280;50528;48.514;14.394;2023-05-10T02:35:43;93271.32;;;7.15;65.12
64211;BME280;50528;48.514;14.394;2023-05-10T02:36:17;93274.70;;;7.15;65.07
64211;BME280;50528;48.514;14.394;2023-05-10T02:36:53;93271.55;;;7.14;65.23
64211;BME280;50528;48.514;14.394;2023-05-10T02:37:26;93272.90;;;7.13;65.31
64211;BME280;50528;48.514;14.394;2023-05-10T02:38:00;93271.19;;;7.13;65.44
64211;BME280;50528;48.514;14.394;2023-05-10T02:38:36;93269.86;;;7.14;65.65
64211;BME280;50528;48.514;14.394;2023-05-10T02:39:10;93270.23;;;7.13;65.75
64211;BME280;50528;48.514;14.394;2023-05-10T02:39:50;93264.73;;;7.11;65.79
64211;BME280;50528;48.514;14.394;2023-05-10T02:40:25;93267.88;;;7.12;65.93
64211;BME280;50528;48.514;14.394;2023-05-10T02:41:01;93266.86;;;7.11;66.08
64211;BME280;50528;48.514;14.394;2023-05-10T02:41:39;93270.05;;;7.10;66.12
64211;BME280;50528;48.514;14.394;2023-05-10T02:42:16;93269.38;;;7.11;66.12
64211;BME280;50528;48.514;14.394;2023-05-10T02:42:52;93269.13;;;7.12;66.18
64211;BME280;50528;48.514;14.394;2023-05-10T02:43:28;93270.13;;;7.12;66.22
64211;BME280;50528;48.514;14.394;2023-05-10T02:44:06;93271.12;;;7.12;66.24
64211;BME280;50528;48.514;14.394;2023-05-10T02:44:41;93265.29;;;7.12;66.17
64211;BME280;50528;48.514;14.394;2023-05-10T02:45:20;93269.09;;;7.13;66.11
64211;BME280;50528;48.514;14.394;2023-05-10T02:45:54;93264.73;;;7.12;66.11
64211;BME280;50528;48.514;14.394;2023-05-10T02:46:27;93267.20;;;7.12;66.23
64211;BME280;50528;48.514;14.394;2023-05-10T02:47:01;93269.09;;;7.12;66.25
64211;BME280;50528;48.514;14.394;2023-05-10T02:47:35;93271.23;;;7.13;66.31
64211;BME280;50528;48.514;14.394;2023-05-10T02:48:08;93266.41;;;7.13;66.33
64211;BME280;50528;48.514;14.394;2023-05-10T02:48:41;93265.84;;;7.14;66.46
64211;BME280;50528;48.514;14.394;2023-05-10T02:49:16;93262.79;;;7.12;66.52
64211;BME280;50528;48.514;14.394;2023-05-10T02:49:49;93266.08;;;7.14;66.51
64211;BME280;50528;48.514;14.394;2023-05-10T02:50:25;93267.59;;;7.15;66.50
64211;BME280;50528;48.514;14.394;2023-05-10T02:51:04;93266.30;;;7.15;66.46
64211;BME280;50528;48.514;14.394;2023-05-10T02:51:43;93268.83;;;7.13;65.93
64211;BME280;50528;48.514;14.394;2023-05-10T02:52:22;93271.68;;;7.04;65.75
64211;BME280;50528;48.514;14.394;2023-05-10T02:53:00;93268.94;;;6.96;65.75
64211;BME280;50528;48.514;14.394;2023-05-10T02:53:36;93269.14;;;6.89;65.84
64211;BME280;50528;48.514;14.394;2023-05-10T02:54:17;93272.51;;;6.87;65.86
64211;BME280;50528;48.514;14.394;2023-05-10T02:54:55;93270.98;;;6.83;65.79
64211;BME280;50528;48.514;14.394;2023-05-10T02:55:33;93273.36;;;6.79;65.75
64211;BME280;50528;48.514;14.394;2023-05-10T02:56:13;93273.69;;;6.76;65.76
64211;BME280;50528;48.514;14.394;2023-05-10T02:56:51;93272.32;;;6.72;65.73
64211;BME280;50528;48.514;14.394;2023-05-10T02:57:30;93272.29;;;6.70;65.71
64211;BME280;50528;48.514;14.394;2023-05-10T02:58:05;93270.21;;;6.68;65.76
64211;BME280;50528;48.514;14.394;2023-05-10T02:58:38;93270.78;;;6.68;65.79
64211;BME280;50528;48.514;14.394;2023-05-10T02:59:12;93272.02;;;6.67;65.88
64211;BME280;50528;48.514;14.394;2023-05-10T02:59:45;93272.51;;;6.68;66.01
64211;BME280;50528;48.514;14.394;2023-05-10T03:00:19;93272.70;;;6.68;66.03
64211;BME280;50528;48.514;14.394;2023-05-10T03:00:52;93272.58;;;6.66;66.21
64211;BME280;50528;48.514;14.394;2023-05-10T03:01:26;93272.21;;;6.66;66.31
64211;BME280;50528;48.514;14.394;2023-05-10T03:01:59;93271.31;;;6.65;66.34
64211;BME280;50528;48.514;14.394;2023-05-10T03:02:34;93273.25;;;6.66;66.47
64211;BME280;50528;48.514;14.394;2023-05-10T03:03:07;93270.91;;;6.67;66.47
64211;BME280;50528;48.514;14.394;2023-05-10T03:03:41;93271.75;;;6.67;66.54
64211;BME280;50528;48.514;14.394;2023-05-10T03:04:14;93270.35;;;6.67;66.67
64211;BME280;50528;48.514;14.394;2023-05-10T03:04:48;93267.33;;;6.68;66.83
64211;BME280;50528;48.514;14.394;2023-05-10T03:05:21;93268.63;;;6.67;66.85
64211;BME280;50528;48.514;14.394;2023-05-10T03:05:54;93267.33;;;6.68;66.99
64211;BME280;50528;48.514;14.394;2023-05-10T03:06:29;93267.23;;;6.68;67.12
64211;BME280;50528;48.514;14.394;2023-05-10T03:07:03;93266.48;;;6.70;67.05
64211;BME280;50528;48.514;14.394;2023-05-10T03:07:36;93266.60;;;6.68;66.89
64211;BME280;50528;48.514;14.394;2023-05-10T03:08:10;93266.98;;;6.66;66.94
64211;BME280;50528;48.514;14.394;2023-05-10T03:08:45;93267.95;;;6.64;66.92
64211;BME280;50528;48.514;14.394;2023-05-10T03:09:18;93270.73;;;6.65;66.87
64211;BME280;50528;48.514;14.394;2023-05-10T03:09:52;93268.57;;;6.63;66.78
64211;BME280;50528;48.514;14.394;2023-05-10T03:10:28;93269.15;;;6.62;66.63
64211;BME280;50528;48.514;14.394;2023-05-10T03:13:16;93270.92;;;6.47;66.54
64211;BME280;50528;48.514;14.394;2023-05-10T03:14:06;93272.70;;;6.45;66.58
64211;BME280;50528;48.514;14.394;2023-05-10T03:15:10;93271.02;;;6.41;66.54
64211;BME280;50528;48.514;14.394;2023-05-10T03:16:05;93269.52;;;6.37;66.64
64211;BME280;50528;48.514;14.394;2023-05-10T03:16:46;93265.20;;;6.34;66.62
64211;BME280;50528;48.514;14.394;2023-05-10T03:17:33;93271.23;;;6.35;66.75
64211;BME280;50528;48.514;14.394;2023-05-10T03:18:18;93266.58;;;6.33;66.80
64211;BME280;50528;48.514;14.394;2023-05-10T03:19:12;93268.56;;;6.33;66.86
64211;BME280;50528;48.514;14.394;2023-05-10T03:19:57;93270.15;;;6.31;67.01
64211;BME280;50528;48.514;14.394;2023-05-10T03:20:42;93276.12;;;6.32;67.10
64211;BME280;50528;48.514;14.394;2023-05-10T03:21:18;93271.61;;;6.33;67.45
64211;BME280;50528;48.514;14.394;2023-05-10T03:21:53;93269.61;;;6.33;67.50
64211;BME280;50528;48.514;14.394;2023-05-10T03:22:47;93271.48;;;6.35;67.59
64211;BME280;50528;48.514;14.394;2023-05-10T03:23:34;93270.99;;;6.34;67.61
64211;BME280;50528;48.514;14.394;2023-05-10T03:24:10;93269.95;;;6.34;67.69
64211;BME280;50528;48.514;14.394;2023-05-10T03:24:46;93272.17;;;6.35;67.79
64211;BME280;50528;48.514;14.394;2023-05-10T03:25:21;93269.98;;;6.37;67.98
64211;BME280;50528;48.514;14.394;2023-05-10T03:25:56;93274.20;;;6.39;68.09
64211;BME280;50528;48.514;14.394;2023-05-10T03:26:30;93274.66;;;6.40;68.15